Time;durP1;ratioP1;P1;durP2;ratioP2;P2;SDS_P1;SDS_P2;PMS_P1;PMS_P2;Temp;Humidity;BMP_temperature;BMP_pressure;BME280_temperature;BME280_humidity;BME280_pressure;Samples;Min_cycle;Max_cycle;Signal;HPM_P1;HPM_P2
2022/03/15 00:00:55;;;;;;;4.95;4.40;;;5.60;91.10;;;;;;5069646;28;20292;-87
2022/03/15 00:03:24;;;;;;;7.22;4.47;;;5.60;91.80;;;;;;5069596;28;20620;-87
2022/03/15 00:05:51;;;;;;;5.75;5.20;;;5.60;91.50;;;;;;5063913;28;20223;-87
2022/03/15 00:08:19;;;;;;;7.15;5.30;;;5.70;91.10;;;;;;5069093;28;20207;-87
2022/03/15 00:10:47;;;;;;;8.75;4.88;;;5.80;90.50;;;;;;5069732;28;20199;-87
2022/03/15 00:13:14;;;;;;;7.40;5.18;;;5.70;99.90;;;;;;5069910;28;20528;-87
2022/03/15 00:15:41;;;;;;;9.70;5.05;;;5.70;91.00;;;;;;5069981;28;20207;-87
2022/03/15 00:18:08;;;;;;;4.70;4.30;;;5.70;90.50;;;;;;5069076;28;20203;-87
2022/03/15 00:20:37;;;;;;;4.65;4.15;;;5.70;90.70;;;;;;5069553;28;20781;-87
2022/03/15 00:23:04;;;;;;;10.48;6.07;;;5.70;91.20;;;;;;5068496;28;20689;-87
2022/03/15 00:25:31;;;;;;;8.82;6.22;;;5.50;91.40;;;;;;5066165;28;20227;-88
2022/03/15 00:27:59;;;;;;;9.75;6.45;;;;;;;;;;5068905;28;20227;-87
2022/03/15 00:30:26;;;;;;;7.93;5.68;;;5.40;91.90;;;;;;5069222;28;20282;-87
2022/03/15 00:32:53;;;;;;;6.20;4.93;;;5.30;92.50;;;;;;5069850;28;20207;-87
2022/03/15 00:35:22;;;;;;;8.02;5.82;;;5.20;92.90;;;;;;5069852;28;20211;-87
2022/03/15 00:37:53;;;;;;;8.85;5.22;;;5.30;92.90;;;;;;5069531;28;20207;-86
2022/03/15 00:40:21;;;;;;;6.25;5.03;;;5.30;92.70;;;;;;5064111;28;20199;-86
2022/03/15 00:42:50;;;;;;;5.30;4.30;;;5.50;92.20;;;;;;5069544;28;20286;-86
2022/03/15 00:45:18;;;;;;;6.32;5.40;;;5.40;91.50;;;;;;5074354;28;20195;-87
2022/03/15 00:47:45;;;;;;;8.18;5.30;;;5.40;99.90;;;;;;5070139;28;20198;-87
2022/03/15 00:50:12;;;;;;;8.60;5.43;;;5.30;92.10;;;;;;5068093;28;20574;-87
2022/03/15 00:52:39;;;;;;;7.38;6.18;;;5.20;92.50;;;;;;5067418;28;20205;-86
2022/03/15 00:55:08;;;;;;;9.35;5.55;;;5.20;99.90;;;;;;5067541;28;20285;-87
2022/03/15 00:57:35;;;;;;;7.45;5.30;;;5.20;93.40;;;;;;5066509;28;20199;-87
2022/03/15 01:00:02;;;;;;;6.05;5.07;;;5.30;93.40;;;;;;5068012;28;20262;-87
2022/03/15 01:02:29;;;;;;;6.55;5.75;;;5.20;99.90;;;;;;5061571;28;20231;-87
2022/03/15 01:04:56;;;;;;;7.40;4.60;;;5.30;93.40;;;;;;5063375;28;20211;-87
2022/03/15 01:07:23;;;;;;;6.63;4.38;;;5.40;93.20;;;;;;5067609;28;20277;-87
2022/03/15 01:09:51;;;;;;;7.68;5.10;;;5.30;99.90;;;;;;5068229;28;20199;-87
2022/03/15 01:12:21;;;;;;;8.27;4.75;;;5.40;97.60;;;;;;5067744;28;20253;-87
2022/03/15 01:14:51;;;;;;;6.00;4.80;;;5.40;99.90;;;;;;5065821;28;20199;-87
2022/03/15 01:17:18;;;;;;;11.73;5.53;;;5.70;99.90;;;;;;5067635;28;20219;-86
2022/03/15 01:19:45;;;;;;;6.65;5.20;;;5.30;99.90;;;;;;5066773;28;20215;-87
2022/03/15 01:22:13;;;;;;;6.88;4.40;;;5.20;99.90;;;;;;5067997;28;20650;-86
2022/03/15 01:24:41;;;;;;;6.07;5.47;;;5.20;92.90;;;;;;5060739;28;20223;-87
2022/03/15 01:27:09;;;;;;;6.40;4.45;;;5.10;93.30;;;;;;5067432;28;20195;-87
2022/03/15 01:29:38;;;;;;;6.70;5.10;;;5.20;93.50;;;;;;5068420;28;20209;-87
2022/03/15 01:32:06;;;;;;;6.20;5.40;;;5.30;93.00;;;;;;5067707;28;20199;-87
2022/03/15 01:34:33;;;;;;;7.35;5.88;;;5.30;92.80;;;;;;5067651;28;20282;-87
2022/03/15 01:37:00;;;;;;;12.85;5.10;;;4.90;99.90;;;;;;5067218;28;20217;-87
2022/03/15 01:39:27;;;;;;;5.20;4.80;;;5.20;99.90;;;;;;5068080;28;20217;-87
2022/03/15 01:41:54;;;;;;;4.65;4.25;;;;;;;;;;5052698;28;20206;-87
2022/03/15 01:44:23;;;;;;;7.28;4.90;;;5.10;93.20;;;;;;5066807;28;20210;-87
2022/03/15 01:46:52;;;;;;;6.95;5.07;;;5.10;93.50;;;;;;5066691;28;20575;-87
2022/03/15 01:49:19;;;;;;;5.70;5.20;;;;;;;;;;5067989;28;20835;-87
2022/03/15 01:51:47;;;;;;;6.18;4.97;;;5.20;93.40;;;;;;5067151;28;20222;-87
2022/03/15 01:54:16;;;;;;;6.35;4.93;;;5.20;93.70;;;;;;5067491;28;20207;-87
2022/03/15 01:56:44;;;;;;;5.63;5.03;;;5.20;99.90;;;;;;5061036;28;20313;-88
2022/03/15 01:59:11;;;;;;;9.50;5.25;;;5.80;99.00;;;;;;5067677;28;20735;-87
2022/03/15 02:01:39;;;;;;;8.00;5.38;;;5.20;93.20;;;;;;5066994;28;21042;-87
2022/03/15 02:04:08;;;;;;;5.95;4.72;;;5.80;99.90;;;;;;5066768;28;20619;-87
2022/03/15 02:06:36;;;;;;;11.35;5.00;;;5.40;99.90;;;;;;5071350;28;20661;-87
2022/03/15 02:09:08;;;;;;;8.18;4.90;;;5.20;93.10;;;;;;5071284;28;20290;-87
2022/03/15 02:11:39;;;;;;;7.43;4.93;;;6.50;93.30;;;;;;5071213;28;20693;-87
2022/03/15 02:14:07;;;;;;;6.22;4.47;;;5.30;92.80;;;;;;5070858;28;20210;-87
2022/03/15 02:16:34;;;;;;;5.95;4.50;;;5.40;99.90;;;;;;5070807;28;20662;-87
2022/03/15 02:19:03;;;;;;;8.00;5.35;;;5.30;93.60;;;;;;5070533;28;20332;-86
2022/03/15 02:21:34;;;;;;;6.75;5.60;;;5.30;99.90;;;;;;5069995;28;20272;-87
2022/03/15 02:24:01;;;;;;;6.15;5.30;;;5.30;93.40;;;;;;5065261;28;20227;-87
2022/03/15 02:26:30;;;;;;;8.88;5.18;;;5.00;99.90;;;;;;5070709;28;20552;-87
2022/03/15 02:28:57;;;;;;;7.78;5.30;;;5.50;99.90;;;;;;5070858;28;20203;-87
2022/03/15 02:31:24;;;;;;;12.55;5.07;;;5.10;94.10;;;;;;5070613;28;20679;-86
2022/03/15 02:33:52;;;;;;;7.50;4.80;;;5.20;94.00;;;;;;5071020;28;20207;-86
2022/03/15 02:36:19;;;;;;;10.35;5.68;;;5.20;93.60;;;;;;5070473;28;20203;-87
2022/03/15 02:38:50;;;;;;;6.20;5.05;;;5.20;93.80;;;;;;5071241;28;20476;-87
2022/03/15 02:41:17;;;;;;;6.03;5.38;;;5.30;94.50;;;;;;5070474;28;20226;-87
2022/03/15 02:43:45;;;;;;;7.30;5.22;;;5.20;94.30;;;;;;5070699;28;20202;-87
2022/03/15 02:46:12;;;;;;;10.45;4.30;;;5.30;99.70;;;;;;5070113;28;20207;-87
2022/03/15 02:48:39;;;;;;;8.30;4.95;;;5.40;99.90;;;;;;5071002;28;20234;-87
2022/03/15 02:51:09;;;;;;;5.50;4.38;;;5.30;93.50;;;;;;5064019;28;20228;-87
2022/03/15 02:53:37;;;;;;;4.50;4.10;;;4.90;99.90;;;;;;5070397;28;20199;-87
2022/03/15 02:56:10;;;;;;;7.53;4.45;;;5.20;99.90;;;;;;5070553;28;20203;-87
2022/03/15 02:58:37;;;;;;;8.02;4.82;;;4.80;99.90;;;;;;5054362;28;20285;-87
2022/03/15 03:01:04;;;;;;;8.88;5.40;;;5.20;94.40;;;;;;5070184;28;20272;-87
2022/03/15 03:03:31;;;;;;;4.45;4.05;;;5.00;99.60;;;;;;5066842;28;20207;-87
2022/03/15 03:05:58;;;;;;;6.00;5.40;;;5.10;99.80;;;;;;5070280;28;20722;-86
2022/03/15 03:08:27;;;;;;;6.18;5.10;;;5.20;94.40;;;;;;5069932;28;20219;-87
2022/03/15 03:10:55;;;;;;;7.07;5.03;;;5.30;94.00;;;;;;5070573;28;20203;-86
2022/03/15 03:13:26;;;;;;;7.78;5.57;;;5.30;99.80;;;;;;5070149;28;20764;-86
2022/03/15 03:15:55;;;;;;;5.25;4.72;;;4.90;99.90;;;;;;5070396;28;20199;-87
2022/03/15 03:18:22;;;;;;;7.88;4.80;;;5.20;94.90;;;;;;5070018;28;20199;-87
2022/03/15 03:20:50;;;;;;;7.07;4.30;;;5.10;99.60;;;;;;5068759;28;20711;-86
2022/03/15 03:23:17;;;;;;;5.00;4.50;;;5.20;94.40;;;;;;5069966;28;20286;-87
2022/03/15 03:25:45;;;;;;;6.13;5.53;;;5.30;93.90;;;;;;5066146;28;20239;-86
2022/03/15 03:28:13;;;;;;;4.32;3.90;;;5.30;93.90;;;;;;5070201;28;20264;-87
2022/03/15 03:30:46;;;;;;;5.60;5.10;;;5.40;99.90;;;;;;5069973;28;20239;-87
2022/03/15 03:33:13;;;;;;;5.07;4.60;;;5.40;99.90;;;;;;5069627;28;20278;-86
2022/03/15 03:35:43;;;;;;;7.47;5.00;;;5.50;99.90;;;;;;5069829;28;20226;-86
2022/03/15 03:38:10;;;;;;;7.40;5.00;;;5.30;99.90;;;;;;5069845;28;20221;-87
2022/03/15 03:40:37;;;;;;;10.40;5.32;;;5.50;99.60;;;;;;5072989;28;20226;-87
2022/03/15 03:43:04;;;;;;;5.35;4.65;;;5.30;99.70;;;;;;5074696;28;20623;-87
2022/03/15 03:45:31;;;;;;;5.82;4.60;;;5.50;99.90;;;;;;5067470;28;20254;-87
2022/03/15 03:48:00;;;;;;;4.95;4.40;;;5.30;94.50;;;;;;5066702;28;20203;-87
2022/03/15 03:50:27;;;;;;;4.82;4.32;;;;;;;;;;5069228;28;20278;-87
2022/03/15 03:52:54;;;;;;;6.20;4.25;;;5.30;93.70;;;;;;5068514;28;20297;-87
2022/03/15 03:55:21;;;;;;;5.82;4.72;;;5.30;99.90;;;;;;5069214;28;20203;-87
2022/03/15 03:57:48;;;;;;;6.65;4.82;;;5.60;99.90;;;;;;5068945;28;20226;-88
2022/03/15 04:00:16;;;;;;;5.05;4.60;;;5.40;94.90;;;;;;5049422;28;20807;-87
2022/03/15 04:02:43;;;;;;;6.82;5.32;;;5.40;94.40;;;;;;5054771;28;20199;-87
2022/03/15 04:05:13;;;;;;;6.60;5.07;;;5.60;99.90;;;;;;5068098;28;20305;-87
2022/03/15 04:07:41;;;;;;;5.50;4.50;;;5.90;95.20;;;;;;5068309;28;20203;-87
2022/03/15 04:10:09;;;;;;;4.97;4.20;;;5.40;94.60;;;;;;5069415;28;20215;-87
2022/03/15 04:12:36;;;;;;;5.35;4.88;;;5.40;94.30;;;;;;5069036;28;20223;-87
2022/03/15 04:15:03;;;;;;;5.88;5.28;;;5.40;94.30;;;;;;5069597;28;20253;-87
2022/03/15 04:17:30;;;;;;;4.90;4.50;;;5.30;94.40;;;;;;5064376;28;20200;-87
2022/03/15 04:19:58;;;;;;;5.80;4.97;;;5.30;94.70;;;;;;5067685;28;20203;-87
2022/03/15 04:22:27;;;;;;;5.80;5.30;;;5.50;99.90;;;;;;5069212;28;20647;-87
2022/03/15 04:24:54;;;;;;;5.30;4.80;;;5.30;94.30;;;;;;5064904;28;20250;-87
2022/03/15 04:27:22;;;;;;;4.72;4.32;;;5.40;94.50;;;;;;5068080;28;20199;-87
2022/03/15 04:29:51;;;;;;;7.40;4.53;;;5.30;99.90;;;;;;5068746;28;20203;-87
2022/03/15 04:32:18;;;;;;;7.45;5.60;;;5.50;99.90;;;;;;5068151;28;20948;-87
2022/03/15 04:34:45;;;;;;;9.77;4.38;;;5.40;94.20;;;;;;5068509;28;20214;-87
2022/03/15 04:37:12;;;;;;;7.85;4.97;;;5.30;99.90;;;;;;5059502;28;20265;-87
2022/03/15 04:39:40;;;;;;;12.88;5.32;;;5.90;94.80;;;;;;5065210;28;20203;-87
2022/03/15 04:42:08;;;;;;;6.03;5.07;;;5.50;99.90;;;;;;5058893;28;20219;-87
2022/03/15 04:44:35;;;;;;;4.70;4.20;;;5.30;93.90;;;;;;5068054;28;20211;-87
2022/03/15 04:47:02;;;;;;;4.50;4.10;;;5.10;95.60;;;;;;5059916;28;20230;-87
2022/03/15 04:49:29;;;;;;;14.40;4.68;;;5.50;99.90;;;;;;5063330;28;20207;-87
2022/03/15 04:51:56;;;;;;;4.60;4.18;;;5.30;94.80;;;;;;5068386;28;20199;-87
2022/03/15 04:54:23;;;;;;;8.77;4.57;;;5.40;94.60;;;;;;5068380;28;20638;-87
2022/03/15 04:56:52;;;;;;;7.10;5.10;;;5.50;99.90;;;;;;5067242;28;20244;-87
2022/03/15 04:59:19;;;;;;;5.95;4.13;;;5.30;95.30;;;;;;5068555;28;20213;-87
2022/03/15 05:01:45;;;;;;;7.55;4.45;;;5.80;99.90;;;;;;5068078;28;20252;-87
2022/03/15 05:04:12;;;;;;;5.65;5.15;;;5.50;99.90;;;;;;5068419;28;20211;-87
2022/03/15 05:06:39;;;;;;;5.68;3.47;;;5.70;99.90;;;;;;5067576;28;20235;-87
2022/03/15 05:09:06;;;;;;;6.13;4.90;;;5.50;99.90;;;;;;5069649;28;20215;-88
2022/03/15 05:11:32;;;;;;;4.32;3.90;;;5.60;99.90;;;;;;5068547;28;20722;-88
2022/03/15 05:14:01;;;;;;;3.78;3.47;;;5.60;93.80;;;;;;5057401;28;20196;-88
2022/03/15 05:16:28;;;;;;;5.18;4.20;;;5.70;99.90;;;;;;5059409;28;20694;-87
2022/03/15 05:18:56;;;;;;;5.28;3.78;;;5.60;93.80;;;;;;5060156;28;20289;-87
2022/03/15 05:21:25;;;;;;;4.65;3.88;;;5.60;93.70;;;;;;5060773;28;20223;-88
2022/03/15 05:23:52;;;;;;;4.57;4.13;;;5.80;93.80;;;;;;5058184;28;20254;-87
2022/03/15 05:26:20;;;;;;;6.28;5.07;;;5.60;99.90;;;;;;5054693;28;20219;-88
2022/03/15 05:28:49;;;;;;;5.80;4.05;;;5.60;93.40;;;;;;5054683;28;20230;-87
2022/03/15 05:31:18;;;;;;;6.05;4.75;;;5.60;93.40;;;;;;5058042;28;20204;-88
2022/03/15 05:33:46;;;;;;;5.75;4.22;;;5.80;93.60;;;;;;5058287;28;20294;-88
2022/03/15 05:36:13;;;;;;;6.43;4.32;;;5.70;99.90;;;;;;5059760;28;20294;-89
2022/03/15 05:38:40;;;;;;;5.15;4.63;;;5.70;93.50;;;;;;5050873;28;20219;-89
2022/03/15 05:41:08;;;;;;;9.02;5.30;;;6.00;93.50;;;;;;5060941;28;20226;-89
2022/03/15 05:43:35;;;;;;;5.40;4.90;;;5.90;93.60;;;;;;5063010;28;20257;-89
2022/03/15 05:46:04;;;;;;;6.40;4.05;;;5.70;93.30;;;;;;5060862;28;20659;-89
2022/03/15 05:48:34;;;;;;;6.35;4.80;;;5.70;93.50;;;;;;5064203;28;20207;-89
2022/03/15 05:51:01;;;;;;;6.43;5.13;;;5.80;99.90;;;;;;5069924;28;20286;-89
2022/03/15 05:53:28;;;;;;;4.70;3.88;;;5.70;93.10;;;;;;5069914;28;20288;-89
2022/03/15 05:55:55;;;;;;;7.18;4.20;;;5.80;93.10;;;;;;5071834;28;20810;-89
2022/03/15 05:58:22;;;;;;;8.85;6.60;;;5.70;99.90;;;;;;5070801;28;20694;-89
2022/03/15 06:00:51;;;;;;;6.10;5.35;;;5.70;99.90;;;;;;5070424;28;20230;-89
2022/03/15 06:03:17;;;;;;;7.63;4.88;;;6.10;93.40;;;;;;5065913;28;20203;-89
2022/03/15 06:05:46;;;;;;;4.90;4.40;;;5.90;93.00;;;;;;5059322;28;20284;-88
2022/03/15 06:08:14;;;;;;;5.25;4.68;;;;;;;;;;5068940;28;20274;-89
2022/03/15 06:10:42;;;;;;;5.88;4.80;;;5.90;92.60;;;;;;5069822;28;20264;-89
2022/03/15 06:13:09;;;;;;;7.60;5.70;;;5.90;92.70;;;;;;5060526;28;20211;-89
2022/03/15 06:15:36;;;;;;;9.32;4.60;;;6.00;92.70;;;;;;5061541;28;20258;-89
2022/03/15 06:18:03;;;;;;;7.47;5.05;;;6.10;92.70;;;;;;5063066;28;20227;-88
2022/03/15 06:20:33;;;;;;;7.63;5.20;;;6.10;92.40;;;;;;5058151;28;20234;-89
2022/03/15 06:23:04;;;;;;;6.57;5.68;;;6.00;94.70;;;;;;5059051;28;20221;-89
2022/03/15 06:25:32;;;;;;;4.60;3.92;;;6.10;97.70;;;;;;5059792;28;20689;-89
2022/03/15 06:27:59;;;;;;;5.88;5.13;;;6.40;93.10;;;;;;5058270;28;20471;-89
2022/03/15 06:30:27;;;;;;;5.57;4.75;;;6.10;92.40;;;;;;5063081;28;20620;-87
2022/03/15 06:32:54;;;;;;;7.93;4.95;;;6.20;92.40;;;;;;5059693;28;20278;-87
2022/03/15 06:35:21;;;;;;;9.25;5.13;;;6.20;92.10;;;;;;5059388;28;20284;-88
2022/03/15 06:37:50;;;;;;;7.03;4.90;;;6.50;92.50;;;;;;5057976;28;20224;-88
2022/03/15 06:40:24;;;;;;;6.03;5.03;;;6.30;92.10;;;;;;5062071;28;20196;-88
2022/03/15 06:42:54;;;;;;;5.07;4.57;;;6.30;92.20;;;;;;5062297;28;20292;-88
2022/03/15 06:45:21;;;;;;;5.65;4.78;;;6.40;92.30;;;;;;5060991;28;20199;-88
2022/03/15 06:47:48;;;;;;;7.15;5.30;;;6.40;92.30;;;;;;5066083;28;20292;-88
2022/03/15 06:50:15;;;;;;;7.07;5.40;;;;;;;;;;5070163;28;20192;-88
2022/03/15 06:52:44;;;;;;;8.65;4.43;;;6.50;91.60;;;;;;5070251;28;20195;-88
2022/03/15 06:55:13;;;;;;;8.00;4.80;;;6.50;91.90;;;;;;5069863;28;20309;-89
2022/03/15 06:57:42;;;;;;;6.22;5.47;;;6.60;92.00;;;;;;5057628;28;20619;-88
2022/03/15 07:00:12;;;;;;;9.02;5.05;;;6.60;91.90;;;;;;5054289;28;20227;-89
2022/03/15 07:02:39;;;;;;;4.85;4.38;;;6.60;92.00;;;;;;5055136;28;20251;-87
2022/03/15 07:05:08;;;;;;;5.63;4.82;;;6.90;95.50;;;;;;5068469;28;20336;-88
2022/03/15 07:07:35;;;;;;;5.28;4.45;;;6.80;91.40;;;;;;5068916;28;20282;-88
2022/03/15 07:10:05;;;;;;;7.47;4.78;;;6.90;91.40;;;;;;5070552;28;20264;-88
2022/03/15 07:12:32;;;;;;;5.00;4.50;;;6.80;91.40;;;;;;5070050;28;20198;-88
2022/03/15 07:15:03;;;;;;;5.45;4.93;;;6.90;91.40;;;;;;5070250;28;20215;-89
2022/03/15 07:17:30;;;;;;;5.22;4.72;;;6.90;91.20;;;;;;5054372;28;20215;-88
2022/03/15 07:19:58;;;;;;;7.20;5.07;;;6.90;91.10;;;;;;5065710;28;20260;-88
2022/03/15 07:22:25;;;;;;;7.63;5.15;;;6.90;91.30;;;;;;5069368;28;20246;-88
2022/03/15 07:24:52;;;;;;;7.07;5.15;;;7.00;91.20;;;;;;5069622;28;20210;-88
2022/03/15 07:27:20;;;;;;;6.30;4.78;;;7.10;91.00;;;;;;5054088;28;20286;-88
2022/03/15 07:29:46;;;;;;;5.57;5.10;;;7.10;91.10;;;;;;5067440;28;20211;-87
2022/03/15 07:32:15;;;;;;;12.85;4.65;;;7.00;91.30;;;;;;5070226;28;20211;-88
2022/03/15 07:34:42;;;;;;;6.72;4.70;;;7.00;91.20;;;;;;5068536;28;20286;-88
2022/03/15 07:37:09;;;;;;;4.45;4.05;;;7.00;91.30;;;;;;5064792;28;20876;-88
2022/03/15 07:39:35;;;;;;;6.70;4.32;;;7.10;91.40;;;;;;5058722;28;20311;-87
2022/03/15 07:42:03;;;;;;;5.82;4.25;;;7.10;91.00;;;;;;5061810;28;21026;-88
2022/03/15 07:44:29;;;;;;;7.38;4.78;;;7.20;90.90;;;;;;5057505;28;20256;-88
2022/03/15 07:46:56;;;;;;;7.90;4.50;;;7.30;91.10;;;;;;5060496;28;20200;-89
2022/03/15 07:49:25;;;;;;;5.68;4.78;;;7.30;90.80;;;;;;5055998;28;20662;-88
2022/03/15 07:51:52;;;;;;;4.35;3.92;;;7.30;91.10;;;;;;5064657;28;20199;-88
2022/03/15 07:54:18;;;;;;;4.68;4.03;;;7.30;91.10;;;;;;5055589;28;20220;-88
2022/03/15 07:56:47;;;;;;;10.77;4.40;;;7.20;98.90;;;;;;5063434;28;20212;-88
2022/03/15 07:59:14;;;;;;;5.57;5.00;;;7.30;90.90;;;;;;5069999;28;20203;-88
2022/03/15 08:01:41;;;;;;;9.00;4.75;;;6.80;97.60;;;;;;5068980;28;20204;-88
2022/03/15 08:04:08;;;;;;;5.82;4.35;;;7.40;91.10;;;;;;5071662;28;20197;-88
2022/03/15 08:06:36;;;;;;;7.05;4.80;;;6.50;90.20;;;;;;5069585;28;20691;-88
2022/03/15 08:09:03;;;;;;;5.72;4.50;;;7.50;90.60;;;;;;5069591;28;20203;-89
2022/03/15 08:11:30;;;;;;;5.13;4.60;;;7.60;90.70;;;;;;5069290;28;20207;-89
2022/03/15 08:13:58;;;;;;;5.63;5.05;;;7.60;90.60;;;;;;5069821;28;20276;-89
2022/03/15 08:16:26;;;;;;;11.50;6.22;;;7.80;97.10;;;;;;5069315;28;20264;-88
2022/03/15 08:18:54;;;;;;;7.22;4.93;;;7.80;90.20;;;;;;5061352;28;20249;-88
2022/03/15 08:21:22;;;;;;;11.02;5.88;;;8.40;90.20;;;;;;5068848;28;20204;-88
2022/03/15 08:23:51;;;;;;;5.22;4.35;;;7.90;89.90;;;;;;5060796;28;20314;-88
2022/03/15 08:26:20;;;;;;;8.07;4.95;;;8.00;88.30;;;;;;5069079;28;20277;-88
2022/03/15 08:28:48;;;;;;;5.43;3.83;;;8.10;88.90;;;;;;5069272;28;20192;-88
2022/03/15 08:31:16;;;;;;;5.95;4.93;;;8.20;87.80;;;;;;5068966;28;20219;-88
2022/03/15 08:33:44;;;;;;;5.00;4.50;;;8.30;88.10;;;;;;5069035;28;20281;-88
2022/03/15 08:36:11;;;;;;;8.60;4.03;;;8.40;87.40;;;;;;5069320;28;20307;-89
2022/03/15 08:38:42;;;;;;;7.05;4.30;;;8.40;87.40;;;;;;5067795;28;20243;-88
2022/03/15 08:41:11;;;;;;;4.73;4.23;;;8.50;87.70;;;;;;5068978;28;20204;-88
2022/03/15 08:43:38;;;;;;;6.72;4.80;;;8.70;86.30;;;;;;5068837;28;20663;-89
2022/03/15 08:46:05;;;;;;;8.75;4.10;;;8.70;86.30;;;;;;5068758;28;20236;-88
2022/03/15 08:48:32;;;;;;;4.35;3.13;;;8.70;85.80;;;;;;5068231;28;20206;-88
2022/03/15 08:51:00;;;;;;;4.13;3.43;;;9.80;89.10;;;;;;5063280;28;20238;-88
2022/03/15 08:53:27;;;;;;;4.80;3.75;;;8.80;86.30;;;;;;5061923;28;21156;-88
2022/03/15 08:55:55;;;;;;;3.90;3.60;;;9.10;94.60;;;;;;5058079;28;20190;-86
2022/03/15 08:58:23;;;;;;;3.83;3.40;;;9.00;86.20;;;;;;5057732;28;21188;-88
2022/03/15 09:00:50;;;;;;;3.72;3.35;;;;;;;;;;5059162;28;20206;-86
2022/03/15 09:03:18;;;;;;;6.10;3.50;;;9.00;86.40;;;;;;5057181;28;20224;-87
2022/03/15 09:05:45;;;;;;;3.20;2.97;;;9.20;87.00;;;;;;5058845;28;20298;-88
2022/03/15 09:08:12;;;;;;;3.67;3.30;;;9.00;92.50;;;;;;5055826;28;20609;-88
2022/03/15 09:10:42;;;;;;;4.05;3.30;;;9.10;88.40;;;;;;5062457;28;20622;-88
2022/03/15 09:13:10;;;;;;;4.20;3.10;;;9.10;90.10;;;;;;5056305;28;20222;-87
2022/03/15 09:15:38;;;;;;;3.50;3.20;;;9.60;91.50;;;;;;5058977;28;20672;-87
2022/03/15 09:18:05;;;;;;;5.70;3.38;;;9.00;91.90;;;;;;5057742;28;20203;-88
2022/03/15 09:20:32;;;;;;;3.83;3.42;;;9.00;92.70;;;;;;5062077;28;20208;-88
2022/03/15 09:22:59;;;;;;;3.37;3.07;;;9.00;92.90;;;;;;5060701;28;20308;-88
2022/03/15 09:25:26;;;;;;;3.40;2.67;;;9.00;93.40;;;;;;5058548;28;20624;-87
2022/03/15 09:27:53;;;;;;;4.00;3.60;;;8.80;99.90;;;;;;5067675;28;20213;-87
2022/03/15 09:30:20;;;;;;;4.65;3.47;;;8.80;94.50;;;;;;5068308;28;20623;-88
2022/03/15 09:32:50;;;;;;;4.07;3.75;;;9.00;95.00;;;;;;5068179;28;20695;-88
2022/03/15 09:35:18;;;;;;;4.53;3.53;;;9.00;95.80;;;;;;5067363;28;20208;-88
2022/03/15 09:37:48;;;;;;;4.20;3.70;;;8.80;98.90;;;;;;5067685;28;20209;-88
2022/03/15 09:40:18;;;;;;;3.37;3.10;;;9.00;95.60;;;;;;5060369;28;20630;-88
2022/03/15 09:42:48;;;;;;;4.60;3.70;;;9.10;95.70;;;;;;5058899;28;20688;-88
2022/03/15 09:45:17;;;;;;;4.00;3.00;;;9.00;98.50;;;;;;5063062;28;20604;-88
2022/03/15 09:47:46;;;;;;;3.70;3.40;;;9.20;95.20;;;;;;5065464;28;20703;-88
2022/03/15 09:50:15;;;;;;;4.30;2.93;;;9.30;95.60;;;;;;5057221;28;21198;-88
2022/03/15 09:55:30;;;;;;;4.63;4.00;;;;;;;;;;5058232;28;20651;-89
2022/03/15 09:57:57;;;;;;;4.07;3.77;;;9.80;99.90;;;;;;5057426;28;20612;-88
2022/03/15 10:00:24;;;;;;;6.53;4.10;;;8.80;99.90;;;;;;5058847;28;20633;-88
2022/03/15 10:02:52;;;;;;;7.40;3.50;;;9.00;96.10;;;;;;5059763;28;21310;-87
2022/03/15 10:05:21;;;;;;;3.80;3.50;;;9.00;95.60;;;;;;5057903;28;20638;-88
2022/03/15 10:07:48;;;;;;;4.93;4.13;;;9.00;95.80;;;;;;5064400;28;20690;-88
2022/03/15 10:10:16;;;;;;;4.15;3.28;;;9.00;95.60;;;;;;5058045;28;20621;-88
2022/03/15 10:12:43;;;;;;;4.47;3.80;;;9.00;95.60;;;;;;5058876;28;20197;-88
2022/03/15 10:15:15;;;;;;;4.60;4.00;;;9.00;95.30;;;;;;5057376;28;20634;-89
2022/03/15 10:17:46;;;;;;;4.60;4.20;;;9.20;99.90;;;;;;5053886;28;21207;-88
2022/03/15 10:20:16;;;;;;;4.07;3.67;;;9.10;99.90;;;;;;5056574;28;20687;-88
2022/03/15 10:22:56;;;;;;;4.40;3.70;;;9.30;99.90;;;;;;5057287;28;20638;-89
2022/03/15 10:25:24;;;;;;;3.93;3.63;;;9.00;99.90;;;;;;5062044;28;20646;-89
2022/03/15 10:27:54;;;;;;;5.83;4.50;;;9.00;99.90;;;;;;5062466;28;21071;-90
2022/03/15 10:30:22;;;;;;;5.37;3.93;;;8.60;96.40;;;;;;5062120;28;20629;-89
2022/03/15 10:32:50;;;;;;;5.93;4.03;;;;;;;;;;5059652;28;20679;-88
2022/03/15 10:35:21;;;;;;;9.60;4.50;;;9.20;98.50;;;;;;5062920;28;20644;-88
2022/03/15 10:37:54;;;;;;;4.60;3.77;;;9.20;95.00;;;;;;5061238;28;20635;-88
2022/03/15 10:40:33;;;;;;;4.93;4.33;;;10.20;95.20;;;;;;5070570;28;20618;-89
2022/03/15 10:43:05;;;;;;;5.20;4.70;;;9.70;98.30;;;;;;5062913;28;20736;-88
2022/03/15 10:45:32;;;;;;;3.97;3.30;;;9.10;99.90;;;;;;5061561;28;20639;-88
2022/03/15 10:47:59;;;;;;;3.67;3.37;;;9.20;96.10;;;;;;5061043;28;20627;-88
2022/03/15 10:50:26;;;;;;;4.83;4.43;;;9.40;99.90;;;;;;5064217;28;20674;-87
2022/03/15 10:52:54;;;;;;;6.20;4.73;;;9.10;99.90;;;;;;5061426;28;20724;-87
2022/03/15 10:55:25;;;;;;;4.20;3.80;;;9.30;97.00;;;;;;5061426;28;21068;-87
2022/03/15 10:57:53;;;;;;;5.07;4.13;;;9.30;97.00;;;;;;5071998;28;21326;-87
2022/03/15 11:00:22;;;;;;;9.80;4.30;;;9.30;97.80;;;;;;5072112;28;20694;-87
2022/03/15 11:02:51;;;;;;;4.63;3.87;;;9.20;98.10;;;;;;5070667;28;20714;-87
2022/03/15 11:05:32;;;;;;;6.67;3.90;;;9.30;97.20;;;;;;5069193;28;20662;-87
2022/03/15 11:08:07;;;;;;;4.40;4.00;;;9.40;97.10;;;;;;5062580;28;21199;-87
2022/03/15 11:10:34;;;;;;;4.90;4.20;;;9.30;97.30;;;;;;5059947;28;20639;-87
2022/03/15 11:13:06;;;;;;;6.10;4.27;;;9.40;96.80;;;;;;5058650;28;20683;-87
2022/03/15 11:15:36;;;;;;;4.73;4.33;;;9.40;97.00;;;;;;5059338;28;20752;-86
2022/03/15 11:18:05;;;;;;;6.23;5.27;;;9.30;99.90;;;;;;5059220;28;20614;-86
2022/03/15 11:20:36;;;;;;;10.63;3.83;;;9.70;99.90;;;;;;5063778;28;21183;-88
2022/03/15 11:23:07;;;;;;;4.80;4.40;;;9.60;97.60;;;;;;5055596;28;20664;-87
2022/03/15 11:25:39;;;;;;;5.33;4.50;;;9.50;97.40;;;;;;5062386;28;21243;-87
2022/03/15 11:28:09;;;;;;;5.97;4.10;;;9.40;98.40;;;;;;5060299;28;20997;-88
2022/03/15 11:30:37;;;;;;;5.93;4.90;;;9.30;98.70;;;;;;5059269;28;20628;-88
2022/03/15 11:33:06;;;;;;;5.90;4.67;;;9.30;98.80;;;;;;5059565;28;21302;-88
2022/03/15 11:35:35;;;;;;;5.10;4.60;;;9.30;99.50;;;;;;5058458;28;21203;-88
2022/03/15 11:38:04;;;;;;;5.60;5.10;;;9.30;98.80;;;;;;5057597;28;20758;-88
2022/03/15 11:40:33;;;;;;;6.30;5.70;;;9.30;99.90;;;;;;5058898;28;20280;-87
2022/03/15 11:43:11;;;;;;;7.50;4.80;;;9.30;99.10;;;;;;5059230;28;20664;-87
2022/03/15 11:45:43;;;;;;;6.17;5.57;;;9.40;99.00;;;;;;5051212;28;21404;-88
2022/03/15 11:48:16;;;;;;;7.30;5.33;;;9.30;99.30;;;;;;5061867;28;20727;-87
2022/03/15 11:50:55;;;;;;;8.40;5.37;;;9.30;99.00;;;;;;5069059;28;20618;-88
2022/03/15 11:53:49;;;;;;;6.20;5.60;;;9.20;99.20;;;;;;5061619;28;20622;-87
2022/03/15 11:56:27;;;;;;;8.90;6.50;;;9.40;99.30;;;;;;5057294;28;20629;-87
2022/03/15 11:58:57;;;;;;;8.60;6.23;;;9.30;99.90;;;;;;5057851;28;21004;-89
2022/03/15 12:01:28;;;;;;;10.40;6.77;;;9.30;99.00;;;;;;5061645;28;20619;-89
2022/03/15 12:03:57;;;;;;;8.30;6.70;;;9.20;99.20;;;;;;5058631;28;21061;-88
2022/03/15 12:06:26;;;;;;;9.40;7.60;;;9.20;99.20;;;;;;5062306;28;20640;-87
2022/03/15 12:08:59;;;;;;;14.40;7.47;;;9.10;99.50;;;;;;5058108;28;20625;-87
2022/03/15 12:11:34;;;;;;;13.30;7.50;;;9.10;99.50;;;;;;5058836;28;20628;-87
2022/03/15 12:14:09;;;;;;;9.17;8.27;;;9.00;99.60;;;;;;5054037;28;20651;-87
2022/03/15 12:16:40;;;;;;;8.67;6.53;;;9.00;99.40;;;;;;5061225;28;20703;-86
2022/03/15 12:19:23;;;;;;;9.60;7.33;;;9.00;99.30;;;;;;5057712;28;20641;-86
2022/03/15 12:21:54;;;;;;;7.63;6.83;;;9.00;99.70;;;;;;5059805;28;20619;-87
2022/03/15 12:24:30;;;;;;;7.83;7.03;;;9.00;99.40;;;;;;5058941;28;20719;-87
2022/03/15 12:26:59;;;;;;;15.13;7.10;;;8.90;99.50;;;;;;5057994;28;20641;-87
2022/03/15 12:29:27;;;;;;;10.17;9.17;;;8.90;99.70;;;;;;5058467;28;20619;-87
2022/03/15 12:31:56;;;;;;;12.43;7.97;;;8.90;99.50;;;;;;5062753;28;20636;-86
2022/03/15 12:34:24;;;;;;;16.60;9.47;;;8.80;99.90;;;;;;5065789;28;20628;-87
2022/03/15 12:36:54;;;;;;;8.95;8.05;;;8.80;99.90;;;;;;5065491;28;20631;-87
2022/03/15 12:39:22;;;;;;;17.07;8.03;;;8.80;99.90;;;;;;5056774;28;20664;-87
2022/03/15 12:42:03;;;;;;;11.20;7.53;;;8.80;99.90;;;;;;5059131;28;21324;-87
2022/03/15 12:44:50;;;;;;;9.33;7.53;;;8.80;99.90;;;;;;5059011;28;20649;-87
2022/03/15 12:47:19;;;;;;;9.80;8.00;;;8.80;99.90;;;;;;5060969;28;20618;-87
2022/03/15 12:50:06;;;;;;;13.37;8.97;;;8.60;99.90;;;;;;5060126;28;20628;-88
2022/03/15 12:52:39;;;;;;;9.73;7.70;;;8.80;99.90;;;;;;5058763;28;20620;-87
2022/03/15 12:55:07;;;;;;;8.50;7.60;;;8.70;99.90;;;;;;5061071;28;20726;-87
2022/03/15 12:57:34;;;;;;;11.07;8.00;;;8.70;99.90;;;;;;5057672;28;21155;-88
2022/03/15 13:00:04;;;;;;;10.07;9.13;;;8.70;99.90;;;;;;5059088;28;20632;-87
2022/03/15 13:02:35;;;;;;;12.20;8.53;;;8.80;99.90;;;;;;5059226;28;20632;-87
2022/03/15 13:05:14;;;;;;;15.57;9.20;;;8.90;99.90;;;;;;5057743;28;21296;-88
2022/03/15 13:07:51;;;;;;;9.60;8.47;;;8.80;99.90;;;;;;5054196;28;20644;-87